sensor_id;sensor_type;location;lat;lon;timestamp;temperature;humidity
15765;DHT22;7983;50.744;7.086;2023-02-28T00:01:14;2.40;99.90
15765;DHT22;7983;50.744;7.086;2023-02-28T00:03:41;2.40;99.90
15765;DHT22;7983;50.744;7.086;2023-02-28T00:06:07;2.40;99.90
15765;DHT22;7983;50.744;7.086;2023-02-28T00:08:35;2.40;99.90
15765;DHT22;7983;50.744;7.086;2023-02-28T00:11:06;2.30;99.90
15765;DHT22;7983;50.744;7.086;2023-02-28T00:13:34;2.40;99.90
15765;DHT22;7983;50.744;7.086;2023-02-28T00:16:07;2.30;99.90
15765;DHT22;7983;50.744;7.086;2023-02-28T00:18:37;2.30;99.90
15765;DHT22;7983;50.744;7.086;2023-02-28T00:21:06;2.30;99.90
15765;DHT22;7983;50.744;7.086;2023-02-28T00:23:35;2.20;99.90
15765;DHT22;7983;50.744;7.086;2023-02-28T00:26:03;2.20;99.90
15765;DHT22;7983;50.744;7.086;2023-02-28T00:28:29;2.20;99.90
15765;DHT22;7983;50.744;7.086;2023-02-28T00:30:55;2.20;99.90
15765;DHT22;7983;50.744;7.086;2023-02-28T00:33:20;2.10;99.90
15765;DHT22;7983;50.744;7.086;2023-02-28T00:35:46;2.10;99.90
15765;DHT22;7983;50.744;7.086;2023-02-28T00:38:13;2.10;99.90
15765;DHT22;7983;50.744;7.086;2023-02-28T00:40:41;2.10;99.90
15765;DHT22;7983;50.744;7.086;2023-02-28T00:43:06;2.00;99.90
15765;DHT22;7983;50.744;7.086;2023-02-28T00:45:35;2.00;99.90
15765;DHT22;7983;50.744;7.086;2023-02-28T00:48:02;2.00;99.90
15765;DHT22;7983;50.744;7.086;2023-02-28T00:50:34;2.00;99.90
15765;DHT22;7983;50.744;7.086;2023-02-28T00:52:59;1.90;99.90
15765;DHT22;7983;50.744;7.086;2023-02-28T00:55:27;1.90;99.90
15765;DHT22;7983;50.744;7.086;2023-02-28T00:57:53;1.90;99.90
15765;DHT22;7983;50.744;7.086;2023-02-28T01:00:18;1.90;99.90
15765;DHT22;7983;50.744;7.086;2023-02-28T01:02:44;1.90;99.90
15765;DHT22;7983;50.744;7.086;2023-02-28T01:05:12;1.80;99.90
15765;DHT22;7983;50.744;7.086;2023-02-28T01:07:37;1.80;99.90
15765;DHT22;7983;50.744;7.086;2023-02-28T01:10:06;1.80;99.90
15765;DHT22;7983;50.744;7.086;2023-02-28T01:12:35;1.80;99.90
15765;DHT22;7983;50.744;7.086;2023-02-28T01:15:00;1.70;99.90
15765;DHT22;7983;50.744;7.086;2023-02-28T01:17:26;1.70;99.90
15765;DHT22;7983;50.744;7.086;2023-02-28T01:19:54;1.70;99.90
15765;DHT22;7983;50.744;7.086;2023-02-28T01:22:20;1.70;99.90
15765;DHT22;7983;50.744;7.086;2023-02-28T01:24:46;1.70;99.90
15765;DHT22;7983;50.744;7.086;2023-02-28T01:27:12;1.70;99.90
15765;DHT22;7983;50.744;7.086;2023-02-28T01:29:39;1.70;99.90
15765;DHT22;7983;50.744;7.086;2023-02-28T01:32:05;1.70;99.90
15765;DHT22;7983;50.744;7.086;2023-02-28T01:34:31;1.70;99.90
15765;DHT22;7983;50.744;7.086;2023-02-28T01:36:56;1.60;99.90
15765;DHT22;7983;50.744;7.086;2023-02-28T01:39:26;1.60;99.90
15765;DHT22;7983;50.744;7.086;2023-02-28T01:41:52;1.60;99.90
15765;DHT22;7983;50.744;7.086;2023-02-28T01:47:24;1.60;99.90
15765;DHT22;7983;50.744;7.086;2023-02-28T01:49:54;1.50;99.90
15765;DHT22;7983;50.744;7.086;2023-02-28T01:52:28;1.60;99.90
15765;DHT22;7983;50.744;7.086;2023-02-28T01:54:56;1.50;99.90
15765;DHT22;7983;50.744;7.086;2023-02-28T01:57:27;1.50;99.90
15765;DHT22;7983;50.744;7.086;2023-02-28T01:59:58;1.50;99.90
15765;DHT22;7983;50.744;7.086;2023-02-28T02:02:27;1.50;99.90
15765;DHT22;7983;50.744;7.086;2023-02-28T02:05:07;1.50;99.90
15765;DHT22;7983;50.744;7.086;2023-02-28T02:07:41;1.40;99.90
15765;DHT22;7983;50.744;7.086;2023-02-28T02:17:42;1.30;99.90
15765;DHT22;7983;50.744;7.086;2023-02-28T02:40:00;1.00;99.90
15765;DHT22;7983;50.744;7.086;2023-02-28T02:42:40;1.00;99.90
15765;DHT22;7983;50.744;7.086;2023-02-28T02:45:50;0.90;99.90
15765;DHT22;7983;50.744;7.086;2023-02-28T02:48:24;0.90;99.90
15765;DHT22;7983;50.744;7.086;2023-02-28T02:50:56;0.80;99.90
15765;DHT22;7983;50.744;7.086;2023-02-28T02:53:34;0.80;99.90
15765;DHT22;7983;50.744;7.086;2023-02-28T02:56:03;0.80;99.90
15765;DHT22;7983;50.744;7.086;2023-02-28T02:58:37;0.70;99.90
15765;DHT22;7983;50.744;7.086;2023-02-28T03:01:12;0.70;99.90
15765;DHT22;7983;50.744;7.086;2023-02-28T03:03:40;0.70;99.90
15765;DHT22;7983;50.744;7.086;2023-02-28T03:06:08;0.70;99.90
15765;DHT22;7983;50.744;7.086;2023-02-28T03:08:36;0.60;99.90
15765;DHT22;7983;50.744;7.086;2023-02-28T03:11:07;0.60;99.90
15765;DHT22;7983;50.744;7.086;2023-02-28T03:27:13;0.50;99.90
15765;DHT22;7983;50.744;7.086;2023-02-28T03:29:47;0.40;99.90
15765;DHT22;7983;50.744;7.086;2023-02-28T03:37:32;0.40;99.90
15765;DHT22;7983;50.744;7.086;2023-02-28T03:40:14;0.30;99.90
15765;DHT22;7983;50.744;7.086;2023-02-28T03:42:45;0.30;99.90
15765;DHT22;7983;50.744;7.086;2023-02-28T03:45:25;0.30;99.90
15765;DHT22;7983;50.744;7.086;2023-02-28T03:48:00;0.20;99.90
15765;DHT22;7983;50.744;7.086;2023-02-28T03:50:33;0.20;99.90
15765;DHT22;7983;50.744;7.086;2023-02-28T03:53:29;0.20;99.90
15765;DHT22;7983;50.744;7.086;2023-02-28T03:56:08;0.20;99.90
15765;DHT22;7983;50.744;7.086;2023-02-28T03:58:45;0.20;99.90
15765;DHT22;7983;50.744;7.086;2023-02-28T04:01:23;0.20;99.90
15765;DHT22;7983;50.744;7.086;2023-02-28T04:03:53;0.20;99.90
15765;DHT22;7983;50.744;7.086;2023-02-28T04:06:21;0.20;99.90
15765;DHT22;7983;50.744;7.086;2023-02-28T04:08:47;0.20;99.90
15765;DHT22;7983;50.744;7.086;2023-02-28T04:13:44;0.20;99.90
15765;DHT22;7983;50.744;7.086;2023-02-28T04:16:10;0.20;99.90
15765;DHT22;7983;50.744;7.086;2023-02-28T04:18:38;0.20;99.90
15765;DHT22;7983;50.744;7.086;2023-02-28T04:21:07;0.20;99.90
15765;DHT22;7983;50.744;7.086;2023-02-28T04:23:33;0.20;99.90
15765;DHT22;7983;50.744;7.086;2023-02-28T04:26:01;0.20;99.90
15765;DHT22;7983;50.744;7.086;2023-02-28T04:28:27;0.10;99.90
15765;DHT22;7983;50.744;7.086;2023-02-28T04:31:02;0.10;99.90
15765;DHT22;7983;50.744;7.086;2023-02-28T04:33:28;0.10;99.90
15765;DHT22;7983;50.744;7.086;2023-02-28T04:36:07;0.10;99.90
15765;DHT22;7983;50.744;7.086;2023-02-28T04:38:38;0.10;99.90
15765;DHT22;7983;50.744;7.086;2023-02-28T04:41:07;0.10;99.90
15765;DHT22;7983;50.744;7.086;2023-02-28T04:43:32;0.10;99.90
15765;DHT22;7983;50.744;7.086;2023-02-28T04:46:01;0.10;99.90
15765;DHT22;7983;50.744;7.086;2023-02-28T04:48:34;0.10;99.90
15765;DHT22;7983;50.744;7.086;2023-02-28T04:51:08;0.10;99.90
15765;DHT22;7983;50.744;7.086;2023-02-28T04:53:36;0.10;99.90
15765;DHT22;7983;50.744;7.086;2023-02-28T04:56:02;0.10;99.90
15765;DHT22;7983;50.744;7.086;2023-02-28T04:58:31;0.10;99.90
15765;DHT22;7983;50.744;7.086;2023-02-28T05:01:15;0.00;99.90
15765;DHT22;7983;50.744;7.086;2023-02-28T05:03:46;0.10;99.90
15765;DHT22;7983;50.744;7.086;2023-02-28T05:06:12;0.10;99.90
15765;DHT22;7983;50.744;7.086;2023-02-28T05:08:41;0.10;99.90
15765;DHT22;7983;50.744;7.086;2023-02-28T05:11:27;0.00;99.90
15765;DHT22;7983;50.744;7.086;2023-02-28T05:13:54;0.10;99.90
15765;DHT22;7983;50.744;7.086;2023-02-28T05:16:21;0.10;99.90
15765;DHT22;7983;50.744;7.086;2023-02-28T05:18:49;0.10;99.90
15765;DHT22;7983;50.744;7.086;2023-02-28T05:21:32;0.10;99.90
15765;DHT22;7983;50.744;7.086;2023-02-28T05:24:00;0.10;99.90
15765;DHT22;7983;50.744;7.086;2023-02-28T05:26:26;0.10;99.90
15765;DHT22;7983;50.744;7.086;2023-02-28T05:28:53;0.10;99.90
15765;DHT22;7983;50.744;7.086;2023-02-28T05:31:22;0.10;99.90
15765;DHT22;7983;50.744;7.086;2023-02-28T05:33:50;0.00;99.90
15765;DHT22;7983;50.744;7.086;2023-02-28T05:36:19;0.00;99.90
15765;DHT22;7983;50.744;7.086;2023-02-28T05:38:49;0.00;99.90
15765;DHT22;7983;50.744;7.086;2023-02-28T05:41:16;0.00;99.90
15765;DHT22;7983;50.744;7.086;2023-02-28T05:43:44;0.00;99.90
15765;DHT22;7983;50.744;7.086;2023-02-28T05:46:11;0.10;99.90
15765;DHT22;7983;50.744;7.086;2023-02-28T05:48:38;0.00;99.90
15765;DHT22;7983;50.744;7.086;2023-02-28T05:51:07;0.10;99.90
15765;DHT22;7983;50.744;7.086;2023-02-28T05:53:36;0.10;99.90
15765;DHT22;7983;50.744;7.086;2023-02-28T05:56:01;0.10;99.90
15765;DHT22;7983;50.744;7.086;2023-02-28T05:58:28;0.10;99.90
15765;DHT22;7983;50.744;7.086;2023-02-28T06:00:57;0.10;99.90
15765;DHT22;7983;50.744;7.086;2023-02-28T06:03:23;0.10;99.90
15765;DHT22;7983;50.744;7.086;2023-02-28T06:05:51;0.10;99.90
15765;DHT22;7983;50.744;7.086;2023-02-28T06:08:17;0.10;99.90
15765;DHT22;7983;50.744;7.086;2023-02-28T06:10:46;0.10;99.90
15765;DHT22;7983;50.744;7.086;2023-02-28T06:13:14;0.10;99.90
15765;DHT22;7983;50.744;7.086;2023-02-28T06:15:44;0.10;99.90
15765;DHT22;7983;50.744;7.086;2023-02-28T06:18:10;0.10;99.90
15765;DHT22;7983;50.744;7.086;2023-02-28T06:20:35;0.10;99.90
15765;DHT22;7983;50.744;7.086;2023-02-28T06:23:03;0.10;99.90
15765;DHT22;7983;50.744;7.086;2023-02-28T06:25:29;0.10;99.90
15765;DHT22;7983;50.744;7.086;2023-02-28T06:27:58;0.10;99.90
15765;DHT22;7983;50.744;7.086;2023-02-28T06:30:25;0.20;99.90
15765;DHT22;7983;50.744;7.086;2023-02-28T06:32:54;0.10;99.90
15765;DHT22;7983;50.744;7.086;2023-02-28T06:35:24;0.20;99.90
15765;DHT22;7983;50.744;7.086;2023-02-28T06:37:50;0.20;99.90
15765;DHT22;7983;50.744;7.086;2023-02-28T06:40:18;0.20;99.90
15765;DHT22;7983;50.744;7.086;2023-02-28T06:42:43;0.20;99.90
15765;DHT22;7983;50.744;7.086;2023-02-28T06:45:10;0.20;99.90
15765;DHT22;7983;50.744;7.086;2023-02-28T06:47:39;0.20;99.90
15765;DHT22;7983;50.744;7.086;2023-02-28T06:50:11;0.20;99.90
15765;DHT22;7983;50.744;7.086;2023-02-28T06:52:37;0.20;99.90
15765;DHT22;7983;50.744;7.086;2023-02-28T06:55:07;0.20;99.90
15765;DHT22;7983;50.744;7.086;2023-02-28T06:57:34;0.20;99.90
15765;DHT22;7983;50.744;7.086;2023-02-28T07:00:06;0.30;99.90
15765;DHT22;7983;50.744;7.086;2023-02-28T07:02:35;0.30;99.90
15765;DHT22;7983;50.744;7.086;2023-02-28T07:05:01;0.30;99.90
15765;DHT22;7983;50.744;7.086;2023-02-28T07:07:26;0.30;99.90
15765;DHT22;7983;50.744;7.086;2023-02-28T07:09:52;0.40;99.90
15765;DHT22;7983;50.744;7.086;2023-02-28T07:12:17;0.40;99.90
15765;DHT22;7983;50.744;7.086;2023-02-28T07:14:43;0.40;99.90
15765;DHT22;7983;50.744;7.086;2023-02-28T07:17:10;0.40;99.90
15765;DHT22;7983;50.744;7.086;2023-02-28T07:19:38;0.50;99.90
15765;DHT22;7983;50.744;7.086;2023-02-28T07:22:04;0.50;99.90
15765;DHT22;7983;50.744;7.086;2023-02-28T07:24:30;0.50;99.90
15765;DHT22;7983;50.744;7.086;2023-02-28T07:26:55;0.60;99.90
15765;DHT22;7983;50.744;7.086;2023-02-28T07:29:21;0.60;99.90
15765;DHT22;7983;50.744;7.086;2023-02-28T07:31:47;0.60;99.90
15765;DHT22;7983;50.744;7.086;2023-02-28T07:34:15;0.70;99.90
15765;DHT22;7983;50.744;7.086;2023-02-28T07:36:41;0.70;99.90
15765;DHT22;7983;50.744;7.086;2023-02-28T07:39:07;0.80;99.90
15765;DHT22;7983;50.744;7.086;2023-02-28T07:41:34;0.80;99.90
15765;DHT22;7983;50.744;7.086;2023-02-28T07:44:03;0.90;99.90
15765;DHT22;7983;50.744;7.086;2023-02-28T07:46:28;0.90;99.90
15765;DHT22;7983;50.744;7.086;2023-02-28T07:49:00;0.90;99.90
15765;DHT22;7983;50.744;7.086;2023-02-28T07:51:28;1.00;99.90
15765;DHT22;7983;50.744;7.086;2023-02-28T07:53:54;1.00;99.90
15765;DHT22;7983;50.744;7.086;2023-02-28T07:56:20;1.10;99.90
15765;DHT22;7983;50.744;7.086;2023-02-28T07:58:48;1.10;99.90
15765;DHT22;7983;50.744;7.086;2023-02-28T08:01:13;1.10;99.90
15765;DHT22;7983;50.744;7.086;2023-02-28T08:03:40;1.20;99.90
15765;DHT22;7983;50.744;7.086;2023-02-28T08:06:07;1.20;99.90
15765;DHT22;7983;50.744;7.086;2023-02-28T08:08:33;1.30;99.90
15765;DHT22;7983;50.744;7.086;2023-02-28T08:11:02;1.30;99.90
15765;DHT22;7983;50.744;7.086;2023-02-28T08:13:31;1.40;99.90
15765;DHT22;7983;50.744;7.086;2023-02-28T08:15:57;1.40;99.90
15765;DHT22;7983;50.744;7.086;2023-02-28T08:18:23;1.40;99.90
15765;DHT22;7983;50.744;7.086;2023-02-28T08:20:51;1.50;99.90
15765;DHT22;7983;50.744;7.086;2023-02-28T08:23:19;1.50;99.90
15765;DHT22;7983;50.744;7.086;2023-02-28T08:25:45;1.60;99.90
15765;DHT22;7983;50.744;7.086;2023-02-28T08:28:10;1.70;99.90
15765;DHT22;7983;50.744;7.086;2023-02-28T08:30:36;1.70;99.90
15765;DHT22;7983;50.744;7.086;2023-02-28T08:33:02;1.80;99.90
15765;DHT22;7983;50.744;7.086;2023-02-28T08:35:28;1.80;99.90
15765;DHT22;7983;50.744;7.086;2023-02-28T08:37:53;1.90;99.90
15765;DHT22;7983;50.744;7.086;2023-02-28T08:40:21;2.00;99.90
15765;DHT22;7983;50.744;7.086;2023-02-28T08:42:47;2.10;99.90
15765;DHT22;7983;50.744;7.086;2023-02-28T08:45:16;2.20;99.90
15765;DHT22;7983;50.744;7.086;2023-02-28T08:47:41;2.30;99.90
15765;DHT22;7983;50.744;7.086;2023-02-28T08:50:12;2.40;99.90
15765;DHT22;7983;50.744;7.086;2023-02-28T08:52:42;2.40;99.90
15765;DHT22;7983;50.744;7.086;2023-02-28T08:55:08;2.60;99.90
15765;DHT22;7983;50.744;7.086;2023-02-28T08:57:34;2.60;99.90
15765;DHT22;7983;50.744;7.086;2023-02-28T09:00:03;2.70;99.90
15765;DHT22;7983;50.744;7.086;2023-02-28T09:02:30;2.80;99.90
15765;DHT22;7983;50.744;7.086;2023-02-28T09:04:57;2.80;99.90
15765;DHT22;7983;50.744;7.086;2023-02-28T09:07:23;2.90;99.90
15765;DHT22;7983;50.744;7.086;2023-02-28T09:09:51;3.00;99.90
15765;DHT22;7983;50.744;7.086;2023-02-28T09:12:27;3.10;99.90
15765;DHT22;7983;50.744;7.086;2023-02-28T09:14:57;3.20;99.90
15765;DHT22;7983;50.744;7.086;2023-02-28T09:17:22;3.30;99.90
15765;DHT22;7983;50.744;7.086;2023-02-28T09:19:50;3.40;99.90
15765;DHT22;7983;50.744;7.086;2023-02-28T09:22:16;3.50;99.90
15765;DHT22;7983;50.744;7.086;2023-02-28T09:24:42;3.60;99.90
15765;DHT22;7983;50.744;7.086;2023-02-28T09:27:07;3.60;99.90
15765;DHT22;7983;50.744;7.086;2023-02-28T09:29:36;3.70;99.90
15765;DHT22;7983;50.744;7.086;2023-02-28T09:32:02;3.80;99.90
15765;DHT22;7983;50.744;7.086;2023-02-28T09:34:33;3.90;99.90
15765;DHT22;7983;50.744;7.086;2023-02-28T09:37:02;4.10;99.90
15765;DHT22;7983;50.744;7.086;2023-02-28T09:39:30;4.50;99.90
15765;DHT22;7983;50.744;7.086;2023-02-28T09:41:57;5.10;99.90
15765;DHT22;7983;50.744;7.086;2023-02-28T09:44:36;5.70;99.90
15765;DHT22;7983;50.744;7.086;2023-02-28T09:47:34;6.40;99.90
15765;DHT22;7983;50.744;7.086;2023-02-28T09:52:51;7.90;99.90
15765;DHT22;7983;50.744;7.086;2023-02-28T09:55:39;8.50;99.90
15765;DHT22;7983;50.744;7.086;2023-02-28T10:03:57;9.90;99.90
15765;DHT22;7983;50.744;7.086;2023-02-28T10:06:30;10.30;99.90
15765;DHT22;7983;50.744;7.086;2023-02-28T10:09:06;10.50;99.90
15765;DHT22;7983;50.744;7.086;2023-02-28T10:11:36;10.60;99.90
15765;DHT22;7983;50.744;7.086;2023-02-28T10:14:10;10.70;99.90
15765;DHT22;7983;50.744;7.086;2023-02-28T10:16:43;10.80;99.90
15765;DHT22;7983;50.744;7.086;2023-02-28T10:19:18;11.00;99.90
15765;DHT22;7983;50.744;7.086;2023-02-28T10:22:01;11.10;99.90
15765;DHT22;7983;50.744;7.086;2023-02-28T10:26:59;11.10;99.90
15765;DHT22;7983;50.744;7.086;2023-02-28T10:29:27;11.10;99.90
15765;DHT22;7983;50.744;7.086;2023-02-28T10:31:53;11.10;99.90
15765;DHT22;7983;50.744;7.086;2023-02-28T10:34:18;11.00;99.90
15765;DHT22;7983;50.744;7.086;2023-02-28T10:36:44;11.00;99.90
15765;DHT22;7983;50.744;7.086;2023-02-28T10:39:37;11.00;99.90
15765;DHT22;7983;50.744;7.086;2023-02-28T10:42:04;11.00;99.90
15765;DHT22;7983;50.744;7.086;2023-02-28T10:44:32;10.90;99.90
15765;DHT22;7983;50.744;7.086;2023-02-28T10:46:58;10.90;99.90
15765;DHT22;7983;50.744;7.086;2023-02-28T10:49:26;10.70;99.90
15765;DHT22;7983;50.744;7.086;2023-02-28T10:51:59;10.50;99.90
15765;DHT22;7983;50.744;7.086;2023-02-28T10:54:40;10.40;99.90
15765;DHT22;7983;50.744;7.086;2023-02-28T10:57:16;10.30;99.90
15765;DHT22;7983;50.744;7.086;2023-02-28T10:59:43;10.00;99.90
15765;DHT22;7983;50.744;7.086;2023-02-28T11:02:29;9.90;99.90
15765;DHT22;7983;50.744;7.086;2023-02-28T11:05:01;10.00;99.90
15765;DHT22;7983;50.744;7.086;2023-02-28T11:07:30;9.90;99.90
15765;DHT22;7983;50.744;7.086;2023-02-28T11:10:00;10.00;99.90
15765;DHT22;7983;50.744;7.086;2023-02-28T11:12:33;10.10;99.90
15765;DHT22;7983;50.744;7.086;2023-02-28T11:15:05;10.10;99.90
15765;DHT22;7983;50.744;7.086;2023-02-28T11:17:35;10.10;99.90
15765;DHT22;7983;50.744;7.086;2023-02-28T11:20:05;10.10;99.90
15765;DHT22;7983;50.744;7.086;2023-02-28T11:22:38;10.20;99.90
15765;DHT22;7983;50.744;7.086;2023-02-28T11:25:16;10.30;99.90
15765;DHT22;7983;50.744;7.086;2023-02-28T11:27:51;10.40;99.90
15765;DHT22;7983;50.744;7.086;2023-02-28T11:30:27;10.40;99.90
15765;DHT22;7983;50.744;7.086;2023-02-28T11:32:54;10.50;99.90
15765;DHT22;7983;50.744;7.086;2023-02-28T11:35:27;10.40;99.90
15765;DHT22;7983;50.744;7.086;2023-02-28T11:37:53;10.30;99.90
15765;DHT22;7983;50.744;7.086;2023-02-28T11:43:44;10.20;97.70
15765;DHT22;7983;50.744;7.086;2023-02-28T11:49:21;10.00;99.90
15765;DHT22;7983;50.744;7.086;2023-02-28T11:58:38;10.10;93.80
15765;DHT22;7983;50.744;7.086;2023-02-28T12:17:49;10.80;99.90
15765;DHT22;7983;50.744;7.086;2023-02-28T12:26:56;11.00;97.50
15765;DHT22;7983;50.744;7.086;2023-02-28T12:29:01;11.10;97.90
15765;DHT22;7983;50.744;7.086;2023-02-28T12:31:35;11.10;99.80
15765;DHT22;7983;50.744;7.086;2023-02-28T12:34:13;11.10;96.00
15765;DHT22;7983;50.744;7.086;2023-02-28T12:36:41;11.20;99.20
15765;DHT22;7983;50.744;7.086;2023-02-28T12:39:21;11.20;99.90
15765;DHT22;7983;50.744;7.086;2023-02-28T12:42:03;11.30;95.20
15765;DHT22;7983;50.744;7.086;2023-02-28T12:47:06;11.30;97.90
15765;DHT22;7983;50.744;7.086;2023-02-28T12:49:41;11.30;99.70
15765;DHT22;7983;50.744;7.086;2023-02-28T12:52:08;11.40;96.30
15765;DHT22;7983;50.744;7.086;2023-02-28T12:54:50;11.30;99.90
15765;DHT22;7983;50.744;7.086;2023-02-28T13:00:03;11.60;99.90
15765;DHT22;7983;50.744;7.086;2023-02-28T13:10:50;12.00;99.40
15765;DHT22;7983;50.744;7.086;2023-02-28T13:13:25;12.10;99.90
15765;DHT22;7983;50.744;7.086;2023-02-28T13:16:02;12.10;99.90
15765;DHT22;7983;50.744;7.086;2023-02-28T13:18:46;12.10;99.90
15765;DHT22;7983;50.744;7.086;2023-02-28T13:21:26;12.10;95.90
15765;DHT22;7983;50.744;7.086;2023-02-28T13:29:38;12.20;93.40
15765;DHT22;7983;50.744;7.086;2023-02-28T13:47:44;12.10;99.90
15765;DHT22;7983;50.744;7.086;2023-02-28T14:05:29;12.40;94.60
15765;DHT22;7983;50.744;7.086;2023-02-28T14:07:29;12.50;94.40
15765;DHT22;7983;50.744;7.086;2023-02-28T14:10:01;12.50;98.10
15765;DHT22;7983;50.744;7.086;2023-02-28T14:17:57;12.40;96.50
15765;DHT22;7983;50.744;7.086;2023-02-28T14:20:27;12.40;99.90
15765;DHT22;7983;50.744;7.086;2023-02-28T14:36:38;12.30;92.40
15765;DHT22;7983;50.744;7.086;2023-02-28T14:39:13;12.20;94.40
15765;DHT22;7983;50.744;7.086;2023-02-28T14:41:41;12.10;91.50
15765;DHT22;7983;50.744;7.086;2023-02-28T14:44:19;12.10;95.70
15765;DHT22;7983;50.744;7.086;2023-02-28T14:46:49;12.10;92.70
15765;DHT22;7983;50.744;7.086;2023-02-28T14:49:30;12.00;94.00
15765;DHT22;7983;50.744;7.086;2023-02-28T14:52:13;12.00;93.70
15765;DHT22;7983;50.744;7.086;2023-02-28T14:54:43;11.90;90.20
15765;DHT22;7983;50.744;7.086;2023-02-28T14:57:38;11.90;94.70
15765;DHT22;7983;50.744;7.086;2023-02-28T15:00:17;11.80;81.20
15765;DHT22;7983;50.744;7.086;2023-02-28T15:02:46;11.80;91.30
15765;DHT22;7983;50.744;7.086;2023-02-28T15:07:48;11.70;94.20
15765;DHT22;7983;50.744;7.086;2023-02-28T15:12:51;11.60;96.50
15765;DHT22;7983;50.744;7.086;2023-02-28T15:15:18;11.60;95.10
15765;DHT22;7983;50.744;7.086;2023-02-28T15:17:49;11.60;97.00
15765;DHT22;7983;50.744;7.086;2023-02-28T15:20:16;11.60;97.00
15765;DHT22;7983;50.744;7.086;2023-02-28T15:22:45;11.70;97.10
15765;DHT22;7983;50.744;7.086;2023-02-28T15:25:17;11.60;95.60
15765;DHT22;7983;50.744;7.086;2023-02-28T15:27:50;11.60;96.80
15765;DHT22;7983;50.744;7.086;2023-02-28T15:30:34;11.60;94.70
15765;DHT22;7983;50.744;7.086;2023-02-28T15:33:26;11.50;92.60
15765;DHT22;7983;50.744;7.086;2023-02-28T15:36:13;11.50;90.30
15765;DHT22;7983;50.744;7.086;2023-02-28T15:38:39;11.40;93.00
15765;DHT22;7983;50.744;7.086;2023-02-28T15:41:05;11.40;98.20
15765;DHT22;7983;50.744;7.086;2023-02-28T15:43:38;11.20;97.80
15765;DHT22;7983;50.744;7.086;2023-02-28T15:46:06;11.20;95.20
15765;DHT22;7983;50.744;7.086;2023-02-28T15:48:54;11.20;97.60
15765;DHT22;7983;50.744;7.086;2023-02-28T15:51:35;11.10;94.10
15765;DHT22;7983;50.744;7.086;2023-02-28T15:54:06;11.00;96.10
15765;DHT22;7983;50.744;7.086;2023-02-28T15:56:39;10.90;95.60
15765;DHT22;7983;50.744;7.086;2023-02-28T15:59:26;10.80;96.30
15765;DHT22;7983;50.744;7.086;2023-02-28T16:02:15;10.70;94.90
15765;DHT22;7983;50.744;7.086;2023-02-28T16:07:37;10.60;91.00
15765;DHT22;7983;50.744;7.086;2023-02-28T16:10:05;10.50;97.50
15765;DHT22;7983;50.744;7.086;2023-02-28T16:12:33;10.50;97.90
15765;DHT22;7983;50.744;7.086;2023-02-28T16:15:02;10.40;97.90
15765;DHT22;7983;50.744;7.086;2023-02-28T16:17:37;10.50;98.10
15765;DHT22;7983;50.744;7.086;2023-02-28T16:20:15;10.40;95.90
15765;DHT22;7983;50.744;7.086;2023-02-28T16:22:42;10.30;93.70
15765;DHT22;7983;50.744;7.086;2023-02-28T16:25:15;10.20;96.80
15765;DHT22;7983;50.744;7.086;2023-02-28T16:27:45;10.10;95.00
15765;DHT22;7983;50.744;7.086;2023-02-28T16:30:20;10.10;96.90
15765;DHT22;7983;50.744;7.086;2023-02-28T16:32:46;10.00;95.50
15765;DHT22;7983;50.744;7.086;2023-02-28T16:35:15;10.00;98.70
15765;DHT22;7983;50.744;7.086;2023-02-28T16:37:43;9.80;98.60
15765;DHT22;7983;50.744;7.086;2023-02-28T16:40:14;9.80;98.30
15765;DHT22;7983;50.744;7.086;2023-02-28T16:42:41;9.80;97.40
15765;DHT22;7983;50.744;7.086;2023-02-28T16:45:21;9.80;99.20
15765;DHT22;7983;50.744;7.086;2023-02-28T16:47:47;9.70;97.20
15765;DHT22;7983;50.744;7.086;2023-02-28T16:50:20;9.70;99.90
15765;DHT22;7983;50.744;7.086;2023-02-28T16:52:46;9.60;99.50
15765;DHT22;7983;50.744;7.086;2023-02-28T16:55:12;9.60;99.90
15765;DHT22;7983;50.744;7.086;2023-02-28T16:57:41;9.50;99.90
15765;DHT22;7983;50.744;7.086;2023-02-28T17:00:12;9.50;99.30
15765;DHT22;7983;50.744;7.086;2023-02-28T17:02:40;9.40;99.30
15765;DHT22;7983;50.744;7.086;2023-02-28T17:05:12;9.30;99.30
15765;DHT22;7983;50.744;7.086;2023-02-28T17:07:42;9.10;99.30
15765;DHT22;7983;50.744;7.086;2023-02-28T17:10:15;9.00;99.40
15765;DHT22;7983;50.744;7.086;2023-02-28T17:12:44;8.80;98.90
15765;DHT22;7983;50.744;7.086;2023-02-28T17:15:14;8.70;99.40
15765;DHT22;7983;50.744;7.086;2023-02-28T17:17:41;8.50;98.70
15765;DHT22;7983;50.744;7.086;2023-02-28T17:20:11;8.40;99.90
15765;DHT22;7983;50.744;7.086;2023-02-28T17:22:37;8.30;99.90
15765;DHT22;7983;50.744;7.086;2023-02-28T17:25:04;8.30;99.90
15765;DHT22;7983;50.744;7.086;2023-02-28T17:27:30;8.10;99.90
15765;DHT22;7983;50.744;7.086;2023-02-28T17:29:56;8.00;99.90
15765;DHT22;7983;50.744;7.086;2023-02-28T17:32:24;7.90;99.90
15765;DHT22;7983;50.744;7.086;2023-02-28T17:34:51;7.80;99.90
15765;DHT22;7983;50.744;7.086;2023-02-28T17:37:16;7.70;99.90
15765;DHT22;7983;50.744;7.086;2023-02-28T17:39:42;7.60;99.90
15765;DHT22;7983;50.744;7.086;2023-02-28T17:42:08;7.50;99.90
15765;DHT22;7983;50.744;7.086;2023-02-28T17:44:35;7.40;99.90
15765;DHT22;7983;50.744;7.086;2023-02-28T17:47:03;7.40;99.90
15765;DHT22;7983;50.744;7.086;2023-02-28T17:49:29;7.30;99.90
15765;DHT22;7983;50.744;7.086;2023-02-28T17:51:54;7.20;99.90
15765;DHT22;7983;50.744;7.086;2023-02-28T17:54:20;7.10;99.90
15765;DHT22;7983;50.744;7.086;2023-02-28T17:56:50;7.00;99.90
15765;DHT22;7983;50.744;7.086;2023-02-28T17:59:18;7.00;99.90
15765;DHT22;7983;50.744;7.086;2023-02-28T18:01:44;6.90;99.90
15765;DHT22;7983;50.744;7.086;2023-02-28T18:04:10;6.90;99.90
15765;DHT22;7983;50.744;7.086;2023-02-28T18:06:45;6.70;99.90
15765;DHT22;7983;50.744;7.086;2023-02-28T18:09:20;6.70;99.90
15765;DHT22;7983;50.744;7.086;2023-02-28T18:11:55;6.60;99.90
15765;DHT22;7983;50.744;7.086;2023-02-28T18:14:23;6.60;99.90
15765;DHT22;7983;50.744;7.086;2023-02-28T18:16:55;6.60;99.90
15765;DHT22;7983;50.744;7.086;2023-02-28T18:19:22;6.50;99.90
15765;DHT22;7983;50.744;7.086;2023-02-28T18:21:52;6.50;99.90
15765;DHT22;7983;50.744;7.086;2023-02-28T18:24:19;6.50;99.90
15765;DHT22;7983;50.744;7.086;2023-02-28T18:26:45;6.50;99.90
15765;DHT22;7983;50.744;7.086;2023-02-28T18:29:20;6.40;99.90
15765;DHT22;7983;50.744;7.086;2023-02-28T18:31:50;6.30;99.90
15765;DHT22;7983;50.744;7.086;2023-02-28T18:34:15;6.30;99.90
15765;DHT22;7983;50.744;7.086;2023-02-28T18:36:41;6.20;99.90
15765;DHT22;7983;50.744;7.086;2023-02-28T18:39:08;6.10;99.90
15765;DHT22;7983;50.744;7.086;2023-02-28T18:41:36;6.10;99.90
15765;DHT22;7983;50.744;7.086;2023-02-28T18:44:02;6.00;99.90
15765;DHT22;7983;50.744;7.086;2023-02-28T18:46:28;6.00;99.90
15765;DHT22;7983;50.744;7.086;2023-02-28T18:48:53;6.00;99.90
15765;DHT22;7983;50.744;7.086;2023-02-28T18:51:22;5.90;99.90
15765;DHT22;7983;50.744;7.086;2023-02-28T18:53:48;5.80;99.90
15765;DHT22;7983;50.744;7.086;2023-02-28T18:56:16;5.80;99.90
15765;DHT22;7983;50.744;7.086;2023-02-28T18:58:45;5.60;99.90
15765;DHT22;7983;50.744;7.086;2023-02-28T19:01:20;5.50;99.90
15765;DHT22;7983;50.744;7.086;2023-02-28T19:03:51;5.40;99.90
15765;DHT22;7983;50.744;7.086;2023-02-28T19:06:17;5.40;99.90
15765;DHT22;7983;50.744;7.086;2023-02-28T19:08:43;5.30;99.90
15765;DHT22;7983;50.744;7.086;2023-02-28T19:11:17;5.30;99.90